sensor_id;sensor_type;location;lat;lon;timestamp;P1;durP1;ratioP1;P2;durP2;ratioP2
69625;SDS011;56847;51.984;5.088;2023-10-31T00:02:09;25.20;;;9.48;;
69625;SDS011;56847;51.984;5.088;2023-10-31T00:04:36;22.30;;;9.93;;
69625;SDS011;56847;51.984;5.088;2023-10-31T00:07:04;23.63;;;9.00;;
69625;SDS011;56847;51.984;5.088;2023-10-31T00:09:31;22.40;;;9.00;;
69625;SDS011;56847;51.984;5.088;2023-10-31T00:11:58;19.30;;;8.65;;
69625;SDS011;56847;51.984;5.088;2023-10-31T00:14:25;25.40;;;7.88;;
69625;SDS011;56847;51.984;5.088;2023-10-31T00:16:59;18.77;;;6.90;;
69625;SDS011;56847;51.984;5.088;2023-10-31T00:19:27;19.65;;;7.18;;
69625;SDS011;56847;51.984;5.088;2023-10-31T00:21:54;23.87;;;7.50;;
69625;SDS011;56847;51.984;5.088;2023-10-31T00:24:21;20.45;;;7.30;;
69625;SDS011;56847;51.984;5.088;2023-10-31T00:26:49;18.05;;;5.47;;
69625;SDS011;56847;51.984;5.088;2023-10-31T00:29:16;20.15;;;6.85;;
69625;SDS011;56847;51.984;5.088;2023-10-31T00:31:43;23.63;;;7.70;;
69625;SDS011;56847;51.984;5.088;2023-10-31T00:34:11;28.40;;;8.03;;
69625;SDS011;56847;51.984;5.088;2023-10-31T00:36:38;22.90;;;8.10;;
69625;SDS011;56847;51.984;5.088;2023-10-31T00:39:05;25.02;;;8.35;;
69625;SDS011;56847;51.984;5.088;2023-10-31T00:41:33;22.58;;;7.55;;
69625;SDS011;56847;51.984;5.088;2023-10-31T00:44:01;20.75;;;7.55;;
69625;SDS011;56847;51.984;5.088;2023-10-31T00:46:28;30.00;;;9.23;;
69625;SDS011;56847;51.984;5.088;2023-10-31T00:48:56;27.50;;;9.88;;
69625;SDS011;56847;51.984;5.088;2023-10-31T00:51:23;33.67;;;11.93;;
69625;SDS011;56847;51.984;5.088;2023-10-31T00:53:50;43.58;;;13.65;;
69625;SDS011;56847;51.984;5.088;2023-10-31T00:56:17;50.25;;;15.23;;
69625;SDS011;56847;51.984;5.088;2023-10-31T00:58:45;38.83;;;14.97;;
69625;SDS011;56847;51.984;5.088;2023-10-31T01:01:12;50.13;;;17.60;;
69625;SDS011;56847;51.984;5.088;2023-10-31T01:03:41;64.57;;;16.38;;
69625;SDS011;56847;51.984;5.088;2023-10-31T01:06:08;46.22;;;17.98;;
69625;SDS011;56847;51.984;5.088;2023-10-31T01:08:35;45.78;;;16.67;;
69625;SDS011;56847;51.984;5.088;2023-10-31T01:11:03;45.67;;;17.43;;
69625;SDS011;56847;51.984;5.088;2023-10-31T01:13:30;49.22;;;16.73;;
69625;SDS011;56847;51.984;5.088;2023-10-31T01:15:57;50.80;;;17.48;;
69625;SDS011;56847;51.984;5.088;2023-10-31T01:18:24;40.88;;;15.07;;
69625;SDS011;56847;51.984;5.088;2023-10-31T01:20:51;28.05;;;12.15;;
69625;SDS011;56847;51.984;5.088;2023-10-31T01:23:18;30.67;;;11.60;;
69625;SDS011;56847;51.984;5.088;2023-10-31T01:25:45;24.25;;;10.82;;
69625;SDS011;56847;51.984;5.088;2023-10-31T01:28:12;21.90;;;9.73;;
69625;SDS011;56847;51.984;5.088;2023-10-31T01:30:40;22.08;;;9.50;;
69625;SDS011;56847;51.984;5.088;2023-10-31T01:33:07;18.77;;;8.38;;
69625;SDS011;56847;51.984;5.088;2023-10-31T01:35:34;24.13;;;8.10;;
69625;SDS011;56847;51.984;5.088;2023-10-31T01:38:01;16.02;;;7.32;;
69625;SDS011;56847;51.984;5.088;2023-10-31T01:40:30;13.73;;;7.05;;
69625;SDS011;56847;51.984;5.088;2023-10-31T01:42:56;18.70;;;6.68;;
69625;SDS011;56847;51.984;5.088;2023-10-31T01:45:23;25.20;;;7.50;;
69625;SDS011;56847;51.984;5.088;2023-10-31T01:47:51;18.43;;;7.43;;
69625;SDS011;56847;51.984;5.088;2023-10-31T01:50:18;21.88;;;8.02;;
69625;SDS011;56847;51.984;5.088;2023-10-31T01:52:46;21.27;;;8.32;;
69625;SDS011;56847;51.984;5.088;2023-10-31T01:55:14;23.92;;;8.65;;
69625;SDS011;56847;51.984;5.088;2023-10-31T01:57:43;18.00;;;8.80;;
69625;SDS011;56847;51.984;5.088;2023-10-31T02:00:12;23.80;;;9.83;;
69625;SDS011;56847;51.984;5.088;2023-10-31T02:02:40;29.92;;;10.52;;
69625;SDS011;56847;51.984;5.088;2023-10-31T02:05:09;30.15;;;11.05;;
69625;SDS011;56847;51.984;5.088;2023-10-31T02:07:37;21.45;;;10.13;;
69625;SDS011;56847;51.984;5.088;2023-10-31T02:10:04;25.15;;;11.95;;
69625;SDS011;56847;51.984;5.088;2023-10-31T02:12:34;31.23;;;11.70;;
69625;SDS011;56847;51.984;5.088;2023-10-31T02:15:03;31.73;;;12.05;;
69625;SDS011;56847;51.984;5.088;2023-10-31T02:17:32;35.33;;;12.60;;
69625;SDS011;56847;51.984;5.088;2023-10-31T02:19:59;31.00;;;12.25;;
69625;SDS011;56847;51.984;5.088;2023-10-31T02:22:26;22.00;;;8.38;;
69625;SDS011;56847;51.984;5.088;2023-10-31T02:24:53;24.63;;;10.60;;
69625;SDS011;56847;51.984;5.088;2023-10-31T02:27:20;27.45;;;10.18;;
69625;SDS011;56847;51.984;5.088;2023-10-31T02:29:47;20.10;;;8.50;;
69625;SDS011;56847;51.984;5.088;2023-10-31T02:32:14;19.50;;;10.23;;
69625;SDS011;56847;51.984;5.088;2023-10-31T02:34:41;21.95;;;10.20;;
69625;SDS011;56847;51.984;5.088;2023-10-31T02:37:08;22.27;;;10.57;;
69625;SDS011;56847;51.984;5.088;2023-10-31T02:39:35;17.10;;;8.25;;
69625;SDS011;56847;51.984;5.088;2023-10-31T02:42:03;25.05;;;11.32;;
69625;SDS011;56847;51.984;5.088;2023-10-31T02:44:30;21.80;;;9.77;;
69625;SDS011;56847;51.984;5.088;2023-10-31T02:46:57;18.85;;;9.73;;
69625;SDS011;56847;51.984;5.088;2023-10-31T02:49:24;22.13;;;10.07;;
69625;SDS011;56847;51.984;5.088;2023-10-31T02:51:51;26.00;;;9.52;;
69625;SDS011;56847;51.984;5.088;2023-10-31T02:54:18;16.48;;;7.75;;
69625;SDS011;56847;51.984;5.088;2023-10-31T02:56:46;16.38;;;8.57;;
69625;SDS011;56847;51.984;5.088;2023-10-31T02:59:13;13.75;;;7.07;;
69625;SDS011;56847;51.984;5.088;2023-10-31T03:01:40;14.90;;;6.73;;
69625;SDS011;56847;51.984;5.088;2023-10-31T03:04:07;17.38;;;8.05;;
69625;SDS011;56847;51.984;5.088;2023-10-31T03:06:34;13.80;;;6.88;;
69625;SDS011;56847;51.984;5.088;2023-10-31T03:09:01;12.45;;;5.63;;
69625;SDS011;56847;51.984;5.088;2023-10-31T03:11:28;14.07;;;6.30;;
69625;SDS011;56847;51.984;5.088;2023-10-31T03:13:55;13.13;;;6.97;;
69625;SDS011;56847;51.984;5.088;2023-10-31T03:16:23;14.40;;;8.15;;
69625;SDS011;56847;51.984;5.088;2023-10-31T03:18:50;13.50;;;8.65;;
69625;SDS011;56847;51.984;5.088;2023-10-31T03:21:17;14.77;;;8.40;;
69625;SDS011;56847;51.984;5.088;2023-10-31T03:23:48;15.90;;;8.73;;
69625;SDS011;56847;51.984;5.088;2023-10-31T03:26:16;22.77;;;8.83;;
69625;SDS011;56847;51.984;5.088;2023-10-31T03:28:43;21.80;;;11.60;;
69625;SDS011;56847;51.984;5.088;2023-10-31T03:31:12;22.92;;;11.95;;
69625;SDS011;56847;51.984;5.088;2023-10-31T03:33:39;27.58;;;12.07;;
69625;SDS011;56847;51.984;5.088;2023-10-31T03:36:08;28.20;;;13.45;;
69625;SDS011;56847;51.984;5.088;2023-10-31T03:38:35;28.40;;;13.20;;
69625;SDS011;56847;51.984;5.088;2023-10-31T03:41:03;27.10;;;12.30;;
69625;SDS011;56847;51.984;5.088;2023-10-31T03:43:30;27.40;;;12.52;;
69625;SDS011;56847;51.984;5.088;2023-10-31T03:45:57;30.85;;;13.55;;
69625;SDS011;56847;51.984;5.088;2023-10-31T03:48:24;24.73;;;12.70;;
69625;SDS011;56847;51.984;5.088;2023-10-31T03:50:52;28.73;;;12.77;;
69625;SDS011;56847;51.984;5.088;2023-10-31T03:53:19;24.10;;;12.18;;
69625;SDS011;56847;51.984;5.088;2023-10-31T03:55:46;26.00;;;10.73;;
69625;SDS011;56847;51.984;5.088;2023-10-31T03:58:13;27.92;;;11.93;;
69625;SDS011;56847;51.984;5.088;2023-10-31T04:00:40;23.42;;;9.23;;
69625;SDS011;56847;51.984;5.088;2023-10-31T04:03:07;18.20;;;9.77;;
69625;SDS011;56847;51.984;5.088;2023-10-31T04:05:35;15.85;;;8.30;;
69625;SDS011;56847;51.984;5.088;2023-10-31T04:08:02;18.75;;;8.40;;
69625;SDS011;56847;51.984;5.088;2023-10-31T04:10:30;14.20;;;6.05;;
69625;SDS011;56847;51.984;5.088;2023-10-31T04:12:57;8.93;;;5.40;;
69625;SDS011;56847;51.984;5.088;2023-10-31T04:15:27;7.77;;;5.17;;
69625;SDS011;56847;51.984;5.088;2023-10-31T04:17:54;8.52;;;3.78;;
69625;SDS011;56847;51.984;5.088;2023-10-31T04:20:20;8.52;;;3.88;;
69625;SDS011;56847;51.984;5.088;2023-10-31T04:22:48;5.18;;;2.95;;
69625;SDS011;56847;51.984;5.088;2023-10-31T04:25:15;4.63;;;2.35;;
69625;SDS011;56847;51.984;5.088;2023-10-31T04:27:42;4.70;;;1.90;;
69625;SDS011;56847;51.984;5.088;2023-10-31T04:30:09;5.38;;;1.85;;
69625;SDS011;56847;51.984;5.088;2023-10-31T04:32:40;3.03;;;1.88;;
69625;SDS011;56847;51.984;5.088;2023-10-31T04:35:07;4.97;;;2.65;;
69625;SDS011;56847;51.984;5.088;2023-10-31T04:37:34;6.28;;;2.45;;
69625;SDS011;56847;51.984;5.088;2023-10-31T04:40:01;5.73;;;2.27;;
69625;SDS011;56847;51.984;5.088;2023-10-31T04:42:28;4.03;;;2.70;;
69625;SDS011;56847;51.984;5.088;2023-10-31T04:44:55;8.60;;;3.70;;
69625;SDS011;56847;51.984;5.088;2023-10-31T04:47:22;9.35;;;4.22;;
69625;SDS011;56847;51.984;5.088;2023-10-31T04:49:49;11.25;;;5.32;;
69625;SDS011;56847;51.984;5.088;2023-10-31T04:52:17;11.53;;;5.93;;
69625;SDS011;56847;51.984;5.088;2023-10-31T04:54:46;12.38;;;6.63;;
69625;SDS011;56847;51.984;5.088;2023-10-31T04:57:13;13.02;;;6.72;;
69625;SDS011;56847;51.984;5.088;2023-10-31T04:59:40;10.40;;;5.85;;
69625;SDS011;56847;51.984;5.088;2023-10-31T05:02:07;11.38;;;5.57;;
69625;SDS011;56847;51.984;5.088;2023-10-31T05:04:34;7.43;;;4.90;;
69625;SDS011;56847;51.984;5.088;2023-10-31T05:07:04;9.40;;;5.20;;
69625;SDS011;56847;51.984;5.088;2023-10-31T05:09:31;5.25;;;2.88;;
69625;SDS011;56847;51.984;5.088;2023-10-31T05:11:58;2.35;;;1.60;;
69625;SDS011;56847;51.984;5.088;2023-10-31T05:14:26;5.10;;;2.33;;
69625;SDS011;56847;51.984;5.088;2023-10-31T05:16:53;4.73;;;2.47;;
69625;SDS011;56847;51.984;5.088;2023-10-31T05:19:20;4.53;;;1.58;;
69625;SDS011;56847;51.984;5.088;2023-10-31T05:21:47;4.20;;;2.35;;
69625;SDS011;56847;51.984;5.088;2023-10-31T05:24:14;4.28;;;2.60;;
69625;SDS011;56847;51.984;5.088;2023-10-31T05:26:41;3.08;;;1.98;;
69625;SDS011;56847;51.984;5.088;2023-10-31T05:29:10;3.90;;;2.27;;
69625;SDS011;56847;51.984;5.088;2023-10-31T05:31:37;5.72;;;1.88;;
69625;SDS011;56847;51.984;5.088;2023-10-31T05:34:04;4.28;;;1.45;;
69625;SDS011;56847;51.984;5.088;2023-10-31T05:36:31;5.50;;;2.25;;
69625;SDS011;56847;51.984;5.088;2023-10-31T05:38:58;6.20;;;2.17;;
69625;SDS011;56847;51.984;5.088;2023-10-31T05:41:25;10.50;;;2.70;;
69625;SDS011;56847;51.984;5.088;2023-10-31T05:43:52;3.30;;;2.28;;
69625;SDS011;56847;51.984;5.088;2023-10-31T05:46:19;5.45;;;1.63;;
69625;SDS011;56847;51.984;5.088;2023-10-31T05:48:46;10.60;;;1.70;;
69625;SDS011;56847;51.984;5.088;2023-10-31T05:51:14;5.47;;;1.65;;
69625;SDS011;56847;51.984;5.088;2023-10-31T05:53:42;3.23;;;2.03;;
69625;SDS011;56847;51.984;5.088;2023-10-31T05:56:14;4.43;;;1.60;;
69625;SDS011;56847;51.984;5.088;2023-10-31T05:58:42;5.18;;;2.35;;
69625;SDS011;56847;51.984;5.088;2023-10-31T06:01:09;3.65;;;2.22;;
69625;SDS011;56847;51.984;5.088;2023-10-31T06:03:37;6.78;;;2.35;;
69625;SDS011;56847;51.984;5.088;2023-10-31T06:06:04;6.60;;;2.00;;
69625;SDS011;56847;51.984;5.088;2023-10-31T06:08:32;8.10;;;2.45;;
69625;SDS011;56847;51.984;5.088;2023-10-31T06:10:59;3.97;;;2.28;;
69625;SDS011;56847;51.984;5.088;2023-10-31T06:13:27;6.35;;;2.17;;
69625;SDS011;56847;51.984;5.088;2023-10-31T06:15:54;5.78;;;2.72;;
69625;SDS011;56847;51.984;5.088;2023-10-31T06:18:26;3.50;;;2.10;;
69625;SDS011;56847;51.984;5.088;2023-10-31T06:20:54;3.78;;;1.70;;
69625;SDS011;56847;51.984;5.088;2023-10-31T06:23:21;6.10;;;2.17;;
69625;SDS011;56847;51.984;5.088;2023-10-31T06:25:48;7.25;;;2.30;;
69625;SDS011;56847;51.984;5.088;2023-10-31T06:28:15;6.25;;;2.45;;
69625;SDS011;56847;51.984;5.088;2023-10-31T06:30:42;6.60;;;2.60;;
69625;SDS011;56847;51.984;5.088;2023-10-31T06:33:09;6.93;;;2.40;;
69625;SDS011;56847;51.984;5.088;2023-10-31T06:35:37;3.63;;;1.80;;
69625;SDS011;56847;51.984;5.088;2023-10-31T06:38:04;3.53;;;2.65;;
69625;SDS011;56847;51.984;5.088;2023-10-31T06:40:31;4.55;;;2.30;;
69625;SDS011;56847;51.984;5.088;2023-10-31T06:42:59;5.83;;;2.20;;
69625;SDS011;56847;51.984;5.088;2023-10-31T06:45:25;7.82;;;2.67;;
69625;SDS011;56847;51.984;5.088;2023-10-31T06:47:53;5.50;;;2.03;;
69625;SDS011;56847;51.984;5.088;2023-10-31T06:50:20;6.80;;;2.20;;
69625;SDS011;56847;51.984;5.088;2023-10-31T06:52:47;4.22;;;2.30;;
69625;SDS011;56847;51.984;5.088;2023-10-31T06:55:15;7.43;;;2.90;;
69625;SDS011;56847;51.984;5.088;2023-10-31T06:57:42;5.97;;;2.90;;
69625;SDS011;56847;51.984;5.088;2023-10-31T07:00:13;4.13;;;2.35;;
69625;SDS011;56847;51.984;5.088;2023-10-31T07:02:41;4.43;;;2.83;;
69625;SDS011;56847;51.984;5.088;2023-10-31T07:05:08;4.60;;;3.25;;
69625;SDS011;56847;51.984;5.088;2023-10-31T07:07:35;7.17;;;2.53;;
69625;SDS011;56847;51.984;5.088;2023-10-31T07:10:03;3.55;;;3.22;;
69625;SDS011;56847;51.984;5.088;2023-10-31T07:12:30;4.53;;;3.38;;
69625;SDS011;56847;51.984;5.088;2023-10-31T07:14:57;4.55;;;3.78;;
69625;SDS011;56847;51.984;5.088;2023-10-31T07:17:25;8.15;;;4.10;;
69625;SDS011;56847;51.984;5.088;2023-10-31T07:19:52;5.93;;;3.83;;
69625;SDS011;56847;51.984;5.088;2023-10-31T07:22:19;7.30;;;3.90;;
69625;SDS011;56847;51.984;5.088;2023-10-31T07:24:46;6.65;;;5.25;;
69625;SDS011;56847;51.984;5.088;2023-10-31T07:27:13;7.15;;;4.78;;
69625;SDS011;56847;51.984;5.088;2023-10-31T07:29:40;9.73;;;5.22;;
69625;SDS011;56847;51.984;5.088;2023-10-31T07:32:08;8.13;;;5.30;;
69625;SDS011;56847;51.984;5.088;2023-10-31T07:34:39;6.57;;;4.88;;
69625;SDS011;56847;51.984;5.088;2023-10-31T07:37:07;10.02;;;5.88;;
69625;SDS011;56847;51.984;5.088;2023-10-31T07:39:35;14.18;;;6.07;;
69625;SDS011;56847;51.984;5.088;2023-10-31T07:42:02;9.95;;;5.80;;
69625;SDS011;56847;51.984;5.088;2023-10-31T07:44:29;9.90;;;6.17;;
69625;SDS011;56847;51.984;5.088;2023-10-31T07:46:56;7.20;;;5.65;;
69625;SDS011;56847;51.984;5.088;2023-10-31T07:49:24;10.60;;;5.70;;
69625;SDS011;56847;51.984;5.088;2023-10-31T07:51:50;11.32;;;6.45;;
69625;SDS011;56847;51.984;5.088;2023-10-31T07:54:17;11.90;;;6.72;;
69625;SDS011;56847;51.984;5.088;2023-10-31T07:56:45;8.87;;;5.83;;
69625;SDS011;56847;51.984;5.088;2023-10-31T07:59:13;11.60;;;6.45;;
69625;SDS011;56847;51.984;5.088;2023-10-31T08:01:40;8.93;;;6.50;;
69625;SDS011;56847;51.984;5.088;2023-10-31T08:04:07;11.60;;;6.28;;
69625;SDS011;56847;51.984;5.088;2023-10-31T08:06:34;11.32;;;6.05;;
69625;SDS011;56847;51.984;5.088;2023-10-31T08:09:01;10.00;;;5.43;;
69625;SDS011;56847;51.984;5.088;2023-10-31T08:11:32;10.05;;;5.10;;
69625;SDS011;56847;51.984;5.088;2023-10-31T08:14:02;11.57;;;6.43;;
69625;SDS011;56847;51.984;5.088;2023-10-31T08:16:30;8.15;;;6.22;;
69625;SDS011;56847;51.984;5.088;2023-10-31T08:18:57;10.55;;;6.53;;
69625;SDS011;56847;51.984;5.088;2023-10-31T08:21:27;10.13;;;5.43;;
69625;SDS011;56847;51.984;5.088;2023-10-31T08:24:00;9.77;;;6.50;;
69625;SDS011;56847;51.984;5.088;2023-10-31T08:26:31;12.90;;;5.95;;
69625;SDS011;56847;51.984;5.088;2023-10-31T08:28:58;12.27;;;6.53;;
69625;SDS011;56847;51.984;5.088;2023-10-31T08:31:27;10.05;;;7.15;;
69625;SDS011;56847;51.984;5.088;2023-10-31T08:33:54;10.43;;;7.47;;
69625;SDS011;56847;51.984;5.088;2023-10-31T08:36:21;15.45;;;6.93;;
69625;SDS011;56847;51.984;5.088;2023-10-31T08:38:48;11.88;;;7.97;;
69625;SDS011;56847;51.984;5.088;2023-10-31T08:41:15;16.23;;;8.45;;
69625;SDS011;56847;51.984;5.088;2023-10-31T08:43:46;13.23;;;9.63;;
69625;SDS011;56847;51.984;5.088;2023-10-31T08:46:13;16.00;;;9.33;;
69625;SDS011;56847;51.984;5.088;2023-10-31T08:48:40;16.15;;;8.68;;
69625;SDS011;56847;51.984;5.088;2023-10-31T08:51:07;15.93;;;9.07;;
69625;SDS011;56847;51.984;5.088;2023-10-31T08:53:34;18.00;;;9.02;;
69625;SDS011;56847;51.984;5.088;2023-10-31T08:56:01;15.27;;;8.52;;
69625;SDS011;56847;51.984;5.088;2023-10-31T08:58:28;14.80;;;8.43;;
69625;SDS011;56847;51.984;5.088;2023-10-31T09:00:56;14.50;;;9.40;;
69625;SDS011;56847;51.984;5.088;2023-10-31T09:03:23;17.10;;;8.23;;
69625;SDS011;56847;51.984;5.088;2023-10-31T09:05:50;13.52;;;9.25;;
69625;SDS011;56847;51.984;5.088;2023-10-31T09:08:17;14.60;;;8.93;;
69625;SDS011;56847;51.984;5.088;2023-10-31T09:10:45;16.07;;;9.80;;
69625;SDS011;56847;51.984;5.088;2023-10-31T09:13:13;11.13;;;7.90;;
69625;SDS011;56847;51.984;5.088;2023-10-31T09:15:40;17.30;;;8.73;;
69625;SDS011;56847;51.984;5.088;2023-10-31T09:18:07;16.40;;;8.48;;
69625;SDS011;56847;51.984;5.088;2023-10-31T09:20:35;13.65;;;8.57;;
69625;SDS011;56847;51.984;5.088;2023-10-31T09:23:02;18.13;;;9.07;;
69625;SDS011;56847;51.984;5.088;2023-10-31T09:25:29;14.05;;;8.77;;
69625;SDS011;56847;51.984;5.088;2023-10-31T09:27:56;18.35;;;7.75;;
69625;SDS011;56847;51.984;5.088;2023-10-31T09:30:25;12.75;;;8.18;;
69625;SDS011;56847;51.984;5.088;2023-10-31T09:32:53;18.38;;;8.80;;
69625;SDS011;56847;51.984;5.088;2023-10-31T09:35:20;20.07;;;9.63;;
69625;SDS011;56847;51.984;5.088;2023-10-31T09:37:47;15.30;;;7.10;;
69625;SDS011;56847;51.984;5.088;2023-10-31T09:40:17;15.27;;;7.85;;
69625;SDS011;56847;51.984;5.088;2023-10-31T09:42:45;24.83;;;8.95;;
69625;SDS011;56847;51.984;5.088;2023-10-31T09:45:13;17.65;;;8.48;;
69625;SDS011;56847;51.984;5.088;2023-10-31T09:47:40;18.43;;;8.90;;
69625;SDS011;56847;51.984;5.088;2023-10-31T09:50:09;14.15;;;8.00;;
69625;SDS011;56847;51.984;5.088;2023-10-31T09:52:38;19.13;;;7.78;;
69625;SDS011;56847;51.984;5.088;2023-10-31T09:55:06;16.80;;;7.85;;
69625;SDS011;56847;51.984;5.088;2023-10-31T09:57:34;16.40;;;7.97;;
69625;SDS011;56847;51.984;5.088;2023-10-31T10:00:02;17.73;;;7.87;;
69625;SDS011;56847;51.984;5.088;2023-10-31T10:02:35;12.07;;;7.18;;
69625;SDS011;56847;51.984;5.088;2023-10-31T10:05:02;14.10;;;7.70;;
69625;SDS011;56847;51.984;5.088;2023-10-31T10:07:30;16.45;;;7.78;;
69625;SDS011;56847;51.984;5.088;2023-10-31T10:10:01;11.52;;;6.43;;
69625;SDS011;56847;51.984;5.088;2023-10-31T10:12:28;8.90;;;5.63;;
69625;SDS011;56847;51.984;5.088;2023-10-31T10:14:56;14.63;;;6.30;;
69625;SDS011;56847;51.984;5.088;2023-10-31T10:17:24;11.05;;;4.60;;
69625;SDS011;56847;51.984;5.088;2023-10-31T10:20:10;12.75;;;4.53;;
69625;SDS011;56847;51.984;5.088;2023-10-31T10:22:42;11.48;;;3.83;;
69625;SDS011;56847;51.984;5.088;2023-10-31T10:25:14;13.13;;;4.33;;
69625;SDS011;56847;51.984;5.088;2023-10-31T10:27:44;13.32;;;3.83;;
69625;SDS011;56847;51.984;5.088;2023-10-31T10:30:12;9.45;;;3.95;;
69625;SDS011;56847;51.984;5.088;2023-10-31T10:32:40;10.23;;;4.68;;
69625;SDS011;56847;51.984;5.088;2023-10-31T10:35:08;12.57;;;4.07;;
69625;SDS011;56847;51.984;5.088;2023-10-31T10:37:36;11.27;;;4.90;;
69625;SDS011;56847;51.984;5.088;2023-10-31T10:40:05;14.82;;;7.00;;
69625;SDS011;56847;51.984;5.088;2023-10-31T10:42:46;18.70;;;8.35;;
69625;SDS011;56847;51.984;5.088;2023-10-31T10:45:15;11.02;;;7.43;;
69625;SDS011;56847;51.984;5.088;2023-10-31T10:47:45;12.90;;;7.40;;
69625;SDS011;56847;51.984;5.088;2023-10-31T10:50:18;17.53;;;7.80;;
69625;SDS011;56847;51.984;5.088;2023-10-31T10:53:00;17.17;;;7.70;;
69625;SDS011;56847;51.984;5.088;2023-10-31T10:55:44;14.05;;;7.80;;
69625;SDS011;56847;51.984;5.088;2023-10-31T11:00:54;16.88;;;6.60;;
69625;SDS011;56847;51.984;5.088;2023-10-31T11:03:22;19.13;;;7.87;;
69625;SDS011;56847;51.984;5.088;2023-10-31T11:05:50;13.20;;;6.68;;
69625;SDS011;56847;51.984;5.088;2023-10-31T11:08:19;15.02;;;8.95;;
69625;SDS011;56847;51.984;5.088;2023-10-31T11:10:47;17.35;;;9.73;;
69625;SDS011;56847;51.984;5.088;2023-10-31T11:13:16;18.20;;;11.98;;
69625;SDS011;56847;51.984;5.088;2023-10-31T11:15:46;20.17;;;13.07;;
69625;SDS011;56847;51.984;5.088;2023-10-31T11:18:17;20.73;;;14.80;;
69625;SDS011;56847;51.984;5.088;2023-10-31T11:20:45;29.80;;;15.13;;
69625;SDS011;56847;51.984;5.088;2023-10-31T11:23:12;27.77;;;15.82;;
69625;SDS011;56847;51.984;5.088;2023-10-31T11:25:43;23.10;;;15.40;;
69625;SDS011;56847;51.984;5.088;2023-10-31T11:28:14;27.03;;;16.33;;
69625;SDS011;56847;51.984;5.088;2023-10-31T11:30:45;28.67;;;17.88;;
69625;SDS011;56847;51.984;5.088;2023-10-31T11:33:18;32.47;;;17.90;;
69625;SDS011;56847;51.984;5.088;2023-10-31T11:36:05;32.60;;;19.27;;
69625;SDS011;56847;51.984;5.088;2023-10-31T11:38:34;30.40;;;18.70;;
69625;SDS011;56847;51.984;5.088;2023-10-31T11:41:03;37.90;;;19.37;;
69625;SDS011;56847;51.984;5.088;2023-10-31T11:46:20;34.08;;;18.10;;
69625;SDS011;56847;51.984;5.088;2023-10-31T11:48:52;32.90;;;19.38;;
69625;SDS011;56847;51.984;5.088;2023-10-31T11:51:23;39.38;;;17.52;;
69625;SDS011;56847;51.984;5.088;2023-10-31T11:53:50;37.80;;;18.87;;
69625;SDS011;56847;51.984;5.088;2023-10-31T11:56:21;35.88;;;18.10;;
69625;SDS011;56847;51.984;5.088;2023-10-31T11:58:56;35.03;;;17.45;;
69625;SDS011;56847;51.984;5.088;2023-10-31T12:01:24;32.85;;;17.27;;
69625;SDS011;56847;51.984;5.088;2023-10-31T12:03:52;34.22;;;18.92;;
69625;SDS011;56847;51.984;5.088;2023-10-31T12:06:19;40.20;;;19.27;;
69625;SDS011;56847;51.984;5.088;2023-10-31T12:08:48;31.45;;;18.00;;
69625;SDS011;56847;51.984;5.088;2023-10-31T12:11:16;34.17;;;18.65;;
69625;SDS011;56847;51.984;5.088;2023-10-31T12:13:59;40.55;;;19.10;;
69625;SDS011;56847;51.984;5.088;2023-10-31T12:16:31;31.52;;;18.95;;
69625;SDS011;56847;51.984;5.088;2023-10-31T12:19:00;38.30;;;20.93;;
69625;SDS011;56847;51.984;5.088;2023-10-31T12:21:38;30.63;;;19.45;;
69625;SDS011;56847;51.984;5.088;2023-10-31T12:24:09;33.70;;;20.33;;
69625;SDS011;56847;51.984;5.088;2023-10-31T12:26:38;39.15;;;22.27;;
69625;SDS011;56847;51.984;5.088;2023-10-31T12:29:09;39.85;;;22.40;;
69625;SDS011;56847;51.984;5.088;2023-10-31T12:31:45;32.67;;;20.57;;
69625;SDS011;56847;51.984;5.088;2023-10-31T12:34:15;35.58;;;23.92;;
69625;SDS011;56847;51.984;5.088;2023-10-31T12:36:44;46.47;;;23.75;;
69625;SDS011;56847;51.984;5.088;2023-10-31T12:39:14;40.65;;;24.55;;
69625;SDS011;56847;51.984;5.088;2023-10-31T12:41:43;37.95;;;22.90;;
69625;SDS011;56847;51.984;5.088;2023-10-31T12:44:11;38.07;;;22.17;;
69625;SDS011;56847;51.984;5.088;2023-10-31T12:46:41;33.58;;;20.45;;
69625;SDS011;56847;51.984;5.088;2023-10-31T12:49:12;37.20;;;21.17;;
69625;SDS011;56847;51.984;5.088;2023-10-31T12:51:58;38.65;;;20.40;;
69625;SDS011;56847;51.984;5.088;2023-10-31T12:54:34;31.17;;;18.55;;
69625;SDS011;56847;51.984;5.088;2023-10-31T12:57:04;32.63;;;16.60;;
69625;SDS011;56847;51.984;5.088;2023-10-31T12:59:33;29.98;;;18.95;;
69625;SDS011;56847;51.984;5.088;2023-10-31T13:02:02;29.33;;;20.08;;
69625;SDS011;56847;51.984;5.088;2023-10-31T13:04:31;39.28;;;21.98;;
69625;SDS011;56847;51.984;5.088;2023-10-31T13:07:00;26.50;;;19.70;;
69625;SDS011;56847;51.984;5.088;2023-10-31T13:09:36;30.60;;;20.60;;
69625;SDS011;56847;51.984;5.088;2023-10-31T13:12:06;26.80;;;17.70;;
69625;SDS011;56847;51.984;5.088;2023-10-31T13:14:34;26.90;;;18.38;;
69625;SDS011;56847;51.984;5.088;2023-10-31T13:17:03;22.33;;;16.67;;
69625;SDS011;56847;51.984;5.088;2023-10-31T13:19:30;22.52;;;16.60;;
69625;SDS011;56847;51.984;5.088;2023-10-31T13:21:57;25.13;;;15.83;;
69625;SDS011;56847;51.984;5.088;2023-10-31T13:24:24;22.50;;;15.73;;
69625;SDS011;56847;51.984;5.088;2023-10-31T13:26:51;22.08;;;14.98;;
69625;SDS011;56847;51.984;5.088;2023-10-31T13:29:22;23.45;;;16.48;;
69625;SDS011;56847;51.984;5.088;2023-10-31T13:31:52;21.92;;;15.98;;
69625;SDS011;56847;51.984;5.088;2023-10-31T13:34:19;23.00;;;14.93;;
69625;SDS011;56847;51.984;5.088;2023-10-31T13:36:46;21.50;;;15.85;;
69625;SDS011;56847;51.984;5.088;2023-10-31T13:39:15;19.33;;;14.63;;
69625;SDS011;56847;51.984;5.088;2023-10-31T13:41:42;22.67;;;16.02;;
69625;SDS011;56847;51.984;5.088;2023-10-31T13:44:09;21.98;;;16.08;;
69625;SDS011;56847;51.984;5.088;2023-10-31T13:46:37;24.03;;;16.40;;
69625;SDS011;56847;51.984;5.088;2023-10-31T13:49:03;28.73;;;16.17;;
69625;SDS011;56847;51.984;5.088;2023-10-31T13:51:30;23.60;;;17.08;;
69625;SDS011;56847;51.984;5.088;2023-10-31T13:53:57;25.77;;;16.90;;
69625;SDS011;56847;51.984;5.088;2023-10-31T13:56:24;25.35;;;16.35;;
69625;SDS011;56847;51.984;5.088;2023-10-31T13:58:52;23.33;;;16.80;;
69625;SDS011;56847;51.984;5.088;2023-10-31T14:01:19;25.98;;;17.25;;
69625;SDS011;56847;51.984;5.088;2023-10-31T14:03:51;30.85;;;19.30;;
69625;SDS011;56847;51.984;5.088;2023-10-31T14:06:19;29.25;;;21.48;;
69625;SDS011;56847;51.984;5.088;2023-10-31T14:08:46;33.97;;;22.17;;
69625;SDS011;56847;51.984;5.088;2023-10-31T14:11:13;34.83;;;23.03;;
69625;SDS011;56847;51.984;5.088;2023-10-31T14:13:40;31.27;;;21.98;;
69625;SDS011;56847;51.984;5.088;2023-10-31T14:16:10;34.35;;;22.50;;
69625;SDS011;56847;51.984;5.088;2023-10-31T14:18:38;37.28;;;23.00;;
69625;SDS011;56847;51.984;5.088;2023-10-31T14:21:05;32.17;;;23.33;;
69625;SDS011;56847;51.984;5.088;2023-10-31T14:23:32;25.90;;;19.30;;
69625;SDS011;56847;51.984;5.088;2023-10-31T14:25:59;27.88;;;21.63;;
69625;SDS011;56847;51.984;5.088;2023-10-31T14:28:26;28.67;;;19.98;;
69625;SDS011;56847;51.984;5.088;2023-10-31T14:30:53;26.33;;;18.65;;
69625;SDS011;56847;51.984;5.088;2023-10-31T14:33:20;29.95;;;19.27;;
69625;SDS011;56847;51.984;5.088;2023-10-31T14:35:47;26.67;;;19.20;;
69625;SDS011;56847;51.984;5.088;2023-10-31T14:38:15;33.75;;;19.05;;
69625;SDS011;56847;51.984;5.088;2023-10-31T14:40:42;27.73;;;17.90;;
69625;SDS011;56847;51.984;5.088;2023-10-31T14:43:09;25.15;;;17.58;;
69625;SDS011;56847;51.984;5.088;2023-10-31T14:45:36;26.85;;;16.60;;